createdAt,value
2022-10-25T00:01:39.114Z,2.50
2022-10-25T00:04:42.552Z,3.53
2022-10-25T00:07:44.548Z,5.30
2022-10-25T00:10:46.631Z,2.63
2022-10-25T00:13:49.631Z,2.67
2022-10-25T00:16:51.481Z,2.90
2022-10-25T00:19:54.742Z,1.63
2022-10-25T00:22:57.258Z,3.67
2022-10-25T00:26:01.556Z,2.70
2022-10-25T00:29:03.819Z,1.83
2022-10-25T00:32:05.687Z,2.85
2022-10-25T00:35:09.874Z,2.13
2022-10-25T00:38:11.727Z,4.75
2022-10-25T00:41:15.647Z,5.65
2022-10-25T00:44:47.345Z,1.60
2022-10-25T00:47:54.812Z,4.57
2022-10-25T00:50:58.359Z,1.52
2022-10-25T00:54:01.373Z,3.25
2022-10-25T00:57:09.564Z,2.95
2022-10-25T01:00:12.060Z,1.50
2022-10-25T01:03:14.907Z,0.82
2022-10-25T01:06:21.851Z,0.68
2022-10-25T01:09:26.449Z,1.30
2022-10-25T01:12:28.511Z,2.10
2022-10-25T01:15:45.026Z,2.10
2022-10-25T01:19:01.678Z,1.00
2022-10-25T01:22:08.745Z,1.25
2022-10-25T01:25:42.761Z,0.70
2022-10-25T01:29:01.684Z,0.80
2022-10-25T01:32:11.244Z,0.65
2022-10-25T01:35:24.907Z,0.57
2022-10-25T01:38:37.856Z,1.75
2022-10-25T01:41:49.783Z,0.73
2022-10-25T01:45:02.058Z,0.93
2022-10-25T01:48:11.290Z,1.10
2022-10-25T01:54:18.921Z,2.28
2022-10-25T01:57:36.950Z,0.82
2022-10-25T02:00:48.961Z,0.73
2022-10-25T02:03:58.792Z,0.40
2022-10-25T02:07:06.804Z,1.83
2022-10-25T02:10:12.877Z,4.45
2022-10-25T02:13:24.805Z,0.65
2022-10-25T02:16:29.343Z,0.82
2022-10-25T02:19:35.405Z,2.15
2022-10-25T02:22:38.936Z,1.40
2022-10-25T02:25:42.500Z,1.40
2022-10-25T02:28:46.063Z,1.20
2022-10-25T02:31:48.145Z,1.27
2022-10-25T02:34:51.434Z,1.70
2022-10-25T02:37:53.339Z,0.95
2022-10-25T02:40:55.267Z,3.38
2022-10-25T02:43:57.194Z,2.30
2022-10-25T02:46:59.216Z,1.52
2022-10-25T02:50:03.340Z,0.95
2022-10-25T02:53:05.210Z,1.83
2022-10-25T02:56:09.816Z,1.40
2022-10-25T02:59:12.342Z,0.40
2022-10-25T03:02:14.204Z,1.40
2022-10-25T03:05:17.498Z,0.85
2022-10-25T03:08:20.245Z,2.72
2022-10-25T03:11:22.147Z,2.35
2022-10-25T03:14:24.181Z,1.42
2022-10-25T03:17:26.071Z,3.33
2022-10-25T03:20:29.409Z,4.55
2022-10-25T03:23:31.569Z,1.50
2022-10-25T03:26:33.500Z,1.13
2022-10-25T03:29:35.433Z,2.22
2022-10-25T03:32:37.628Z,3.53
2022-10-25T03:35:40.979Z,0.95
2022-10-25T03:38:43.226Z,1.10
2022-10-25T03:41:45.204Z,2.45
2022-10-25T03:44:47.471Z,2.35
2022-10-25T03:47:49.714Z,1.20
2022-10-25T03:50:54.057Z,0.93
2022-10-25T03:53:56.020Z,2.00
2022-10-25T03:56:57.965Z,1.85
2022-10-25T03:59:59.920Z,1.13
2022-10-25T04:03:02.731Z,1.75
2022-10-25T04:06:06.665Z,0.95
2022-10-25T04:09:08.634Z,1.52
2022-10-25T04:12:10.615Z,1.75
2022-10-25T04:15:13.142Z,2.88
2022-10-25T04:18:15.086Z,0.77
2022-10-25T04:21:18.367Z,1.80
2022-10-25T04:24:20.317Z,2.30
2022-10-25T04:27:22.204Z,1.88
2022-10-25T04:30:24.131Z,1.40
2022-10-25T04:33:26.046Z,3.15
2022-10-25T04:36:30.231Z,1.42
2022-10-25T04:39:32.213Z,1.60
2022-10-25T04:42:34.913Z,2.60
2022-10-25T04:45:36.945Z,4.07
2022-10-25T04:48:39.346Z,3.38
2022-10-25T04:51:42.821Z,2.45
2022-10-25T04:54:44.955Z,4.18
2022-10-25T04:57:46.924Z,3.58
2022-10-25T05:00:49.088Z,1.58
2022-10-25T05:03:51.140Z,5.38
2022-10-25T05:06:54.500Z,17.40
2022-10-25T05:09:56.453Z,4.53
2022-10-25T05:12:58.389Z,7.72
2022-10-25T05:16:00.444Z,4.18
2022-10-25T05:19:02.773Z,2.60
2022-10-25T05:22:06.154Z,1.48
2022-10-25T05:25:08.642Z,2.95
2022-10-25T05:28:10.592Z,1.70
2022-10-25T05:31:15.312Z,1.52
2022-10-25T05:34:17.261Z,1.45
2022-10-25T05:37:20.654Z,1.95
2022-10-25T05:40:22.604Z,5.78
2022-10-25T05:43:24.617Z,3.80
2022-10-25T05:46:27.073Z,2.92
2022-10-25T05:49:28.960Z,2.00
2022-10-25T05:52:32.287Z,4.80
2022-10-25T05:55:34.205Z,4.55
2022-10-25T05:58:36.225Z,5.03
2022-10-25T06:01:39.831Z,5.18
2022-10-25T06:04:47.846Z,3.88
2022-10-25T06:07:53.448Z,3.03
2022-10-25T06:10:55.467Z,3.22
2022-10-25T06:13:57.538Z,6.43
2022-10-25T06:16:59.575Z,4.53
2022-10-25T06:20:01.543Z,6.30
2022-10-25T06:23:08.015Z,4.47
2022-10-25T06:26:14.173Z,3.25
2022-10-25T06:29:16.308Z,4.60
2022-10-25T06:32:18.232Z,3.88
2022-10-25T06:35:20.473Z,3.63
2022-10-25T06:38:24.380Z,5.30
2022-10-25T06:41:28.533Z,8.52
2022-10-25T06:44:30.487Z,3.58
2022-10-25T06:47:32.388Z,1.60
2022-10-25T06:50:34.309Z,4.95
2022-10-25T06:53:38.371Z,3.45
2022-10-25T06:56:40.305Z,5.88
2022-10-25T06:59:42.259Z,5.70
2022-10-25T07:02:44.320Z,5.55
2022-10-25T07:05:46.585Z,7.55
2022-10-25T07:08:53.511Z,4.68
2022-10-25T07:11:55.598Z,4.47
2022-10-25T07:14:57.510Z,3.58
2022-10-25T07:17:59.431Z,6.10
2022-10-25T07:21:02.353Z,5.85
2022-10-25T07:24:06.184Z,6.28
2022-10-25T07:27:08.096Z,3.92
2022-10-25T07:30:11.072Z,10.60
2022-10-25T07:33:13.107Z,7.60
2022-10-25T07:36:15.012Z,9.65
2022-10-25T07:39:18.361Z,10.15
2022-10-25T07:42:20.320Z,5.97
2022-10-25T07:45:25.344Z,2.83
2022-10-25T07:48:28.690Z,5.55
2022-10-25T07:51:30.662Z,5.05
2022-10-25T07:54:34.032Z,2.15
2022-10-25T07:57:36.019Z,4.72
2022-10-25T08:00:38.138Z,3.30
2022-10-25T08:03:40.048Z,3.17
2022-10-25T08:06:42.037Z,7.18
2022-10-25T08:09:45.372Z,2.75
2022-10-25T08:12:48.311Z,3.75
2022-10-25T08:15:50.857Z,3.45
2022-10-25T08:18:52.749Z,3.42
2022-10-25T08:21:54.740Z,4.53
2022-10-25T08:24:58.164Z,3.30
2022-10-25T08:28:00.194Z,1.65
2022-10-25T08:31:02.208Z,3.50
2022-10-25T08:34:04.539Z,4.13
2022-10-25T08:37:06.452Z,6.38
2022-10-25T08:40:17.977Z,4.70
2022-10-25T08:43:47.900Z,5.25
2022-10-25T08:46:56.148Z,4.68
2022-10-25T08:50:02.689Z,4.65
2022-10-25T08:53:09.010Z,3.13
2022-10-25T08:56:17.512Z,4.18
2022-10-25T08:59:26.013Z,3.13
2022-10-25T09:02:36.858Z,3.00
2022-10-25T09:05:41.509Z,2.83
2022-10-25T09:08:56.598Z,2.25
2022-10-25T09:12:09.766Z,3.63
2022-10-25T09:15:19.854Z,6.45
2022-10-25T09:18:31.542Z,3.35
2022-10-25T09:21:43.745Z,5.53
2022-10-25T09:24:57.618Z,5.55
2022-10-25T09:28:04.124Z,3.28
2022-10-25T09:31:10.869Z,5.75
2022-10-25T09:34:14.839Z,2.60
2022-10-25T09:37:21.377Z,4.90
2022-10-25T09:40:25.744Z,3.00
2022-10-25T09:43:35.463Z,10.98
2022-10-25T09:46:44.744Z,7.65
2022-10-25T09:53:01.733Z,9.30
2022-10-25T09:56:05.185Z,2.88
2022-10-25T09:59:11.481Z,3.22
2022-10-25T10:02:17.977Z,1.98
2022-10-25T10:05:21.440Z,2.65
2022-10-25T10:08:24.252Z,3.22
2022-10-25T10:11:26.712Z,7.40
2022-10-25T10:14:36.813Z,2.00
2022-10-25T10:17:38.801Z,1.23
2022-10-25T10:20:57.343Z,3.05
2022-10-25T10:24:03.001Z,1.92
2022-10-25T10:27:08.512Z,3.33
2022-10-25T10:30:22.189Z,3.17
2022-10-25T10:33:32.737Z,1.70
2022-10-25T10:36:35.360Z,2.85
2022-10-25T10:39:48.620Z,2.03
2022-10-25T10:42:50.637Z,4.75
2022-10-25T10:46:00.203Z,2.42
2022-10-25T10:49:02.968Z,1.92
2022-10-25T10:52:05.588Z,2.95
2022-10-25T10:55:17.438Z,2.88
2022-10-25T10:58:24.969Z,1.20
2022-10-25T11:01:33.167Z,1.45
2022-10-25T11:04:46.890Z,4.50
2022-10-25T11:07:55.119Z,4.18
2022-10-25T11:11:13.366Z,4.03
2022-10-25T11:14:17.043Z,2.45
2022-10-25T11:17:24.946Z,1.85
2022-10-25T11:20:33.339Z,2.33
2022-10-25T11:23:49.306Z,3.00
2022-10-25T11:26:57.661Z,3.47
2022-10-25T11:30:07.757Z,3.03
2022-10-25T11:33:35.190Z,3.70
2022-10-25T11:36:57.458Z,6.93
2022-10-25T11:40:08.262Z,2.47
2022-10-25T11:43:40.956Z,6.50
2022-10-25T11:46:53.303Z,3.30
2022-10-25T11:50:20.024Z,4.22
2022-10-25T11:53:36.738Z,1.92
2022-10-25T11:56:49.172Z,2.28
2022-10-25T12:00:00.246Z,2.83
2022-10-25T12:03:25.920Z,1.63
2022-10-25T12:06:40.312Z,3.65
2022-10-25T12:09:51.008Z,2.97
2022-10-25T12:12:58.481Z,4.32
2022-10-25T12:16:02.755Z,3.92
2022-10-25T12:19:13.285Z,3.50
2022-10-25T12:22:20.614Z,2.65
2022-10-25T12:25:26.267Z,4.10
2022-10-25T12:28:35.576Z,3.65
2022-10-25T12:31:42.332Z,4.43
2022-10-25T12:34:47.975Z,4.72
2022-10-25T12:37:58.002Z,3.00
2022-10-25T12:41:04.685Z,5.63
2022-10-25T12:44:24.138Z,1.85
2022-10-25T12:47:43.912Z,3.58
2022-10-25T12:50:59.930Z,4.55
2022-10-25T12:54:23.003Z,6.40
2022-10-25T12:57:34.942Z,3.78
2022-10-25T13:00:43.448Z,3.40
2022-10-25T13:04:21.852Z,1.30
2022-10-25T13:07:24.587Z,2.42
2022-10-25T13:10:32.974Z,2.55
2022-10-25T13:13:36.789Z,1.80
2022-10-25T13:16:38.679Z,2.13
2022-10-25T13:19:54.081Z,3.22
2022-10-25T13:22:56.728Z,4.43
2022-10-25T13:26:07.224Z,5.30
2022-10-25T13:29:42.456Z,4.57
2022-10-25T13:33:22.783Z,3.17
2022-10-25T13:36:46.605Z,2.37
2022-10-25T13:39:53.695Z,2.28
2022-10-25T13:43:03.846Z,1.92
2022-10-25T13:46:06.013Z,11.55
2022-10-25T13:49:27.868Z,3.08
2022-10-25T13:52:32.393Z,22.55
2022-10-25T13:55:36.438Z,24.13
2022-10-25T13:58:48.145Z,16.33
2022-10-25T14:01:53.592Z,33.20
2022-10-25T14:04:55.595Z,27.08
2022-10-25T14:08:15.055Z,27.63
2022-10-25T14:11:20.614Z,3.67
2022-10-25T14:14:28.580Z,13.13
2022-10-25T14:17:34.921Z,9.25
2022-10-25T14:20:37.803Z,2.90
2022-10-25T14:23:40.941Z,3.25
2022-10-25T14:26:51.445Z,10.88
2022-10-25T14:30:11.093Z,4.72
2022-10-25T14:33:36.760Z,10.00
2022-10-25T14:36:41.449Z,12.02
2022-10-25T14:39:52.243Z,15.50
2022-10-25T14:42:55.159Z,20.92
2022-10-25T14:46:10.888Z,8.50
2022-10-25T14:49:12.841Z,8.35
2022-10-25T14:52:14.769Z,6.18
2022-10-25T14:55:21.541Z,12.07
2022-10-25T14:58:24.286Z,10.93
2022-10-25T15:01:28.237Z,7.13
2022-10-25T15:04:32.809Z,5.72
2022-10-25T15:07:39.861Z,11.65
2022-10-25T15:10:44.316Z,5.90
2022-10-25T15:13:47.484Z,3.53
2022-10-25T15:17:01.660Z,6.72
2022-10-25T15:20:23.795Z,6.32
2022-10-25T15:23:25.696Z,8.07
2022-10-25T15:26:30.171Z,2.38
2022-10-25T15:29:45.623Z,5.45
2022-10-25T15:32:49.297Z,6.90
2022-10-25T15:35:53.352Z,8.13
2022-10-25T15:39:16.823Z,6.32
2022-10-25T15:42:20.338Z,9.30
2022-10-25T15:45:22.206Z,9.70
2022-10-25T15:48:25.556Z,4.57
2022-10-25T15:51:30.948Z,9.48
2022-10-25T15:54:34.453Z,8.32
2022-10-25T15:57:36.374Z,14.63
2022-10-25T16:00:38.415Z,16.13
2022-10-25T16:03:41.767Z,12.73
2022-10-25T16:06:45.301Z,6.95
2022-10-25T16:09:47.408Z,7.35
2022-10-25T16:12:57.103Z,6.97
2022-10-25T16:16:04.662Z,10.60
2022-10-25T16:19:17.580Z,8.90
2022-10-25T16:22:19.679Z,5.57
2022-10-25T16:25:22.901Z,6.85
2022-10-25T16:31:28.367Z,3.42
2022-10-25T16:34:32.599Z,6.65
2022-10-25T16:37:34.605Z,10.25
2022-10-25T16:40:36.556Z,7.50
2022-10-25T16:43:38.723Z,7.97
2022-10-25T16:46:40.691Z,5.93
2022-10-25T16:49:44.592Z,12.02
2022-10-25T16:52:46.865Z,9.43
2022-10-25T16:55:48.925Z,6.50
2022-10-25T16:58:51.144Z,5.30
2022-10-25T17:01:55.626Z,10.27
2022-10-25T17:04:59.153Z,11.00
2022-10-25T17:08:01.638Z,10.40
2022-10-25T17:11:04.202Z,11.43
2022-10-25T17:14:06.846Z,12.80
2022-10-25T17:17:09.611Z,11.27
2022-10-25T17:20:17.098Z,8.23
2022-10-25T17:23:20.493Z,9.45
2022-10-25T17:26:22.867Z,8.88
2022-10-25T17:29:25.108Z,4.30
2022-10-25T17:32:27.104Z,6.28
2022-10-25T17:35:30.654Z,6.60
2022-10-25T17:38:33.300Z,9.13
2022-10-25T17:41:35.743Z,7.53
2022-10-25T17:44:37.941Z,6.45
2022-10-25T17:47:40.873Z,10.90
2022-10-25T17:50:46.262Z,9.57
2022-10-25T17:53:51.966Z,10.65
2022-10-25T17:56:54.784Z,7.40
2022-10-25T17:59:57.670Z,7.50
2022-10-25T18:03:00.221Z,4.80
2022-10-25T18:06:06.810Z,5.50
2022-10-25T18:09:09.891Z,8.15
2022-10-25T18:12:12.529Z,9.38
2022-10-25T18:15:15.540Z,8.30
2022-10-25T18:18:18.544Z,8.25
2022-10-25T18:21:23.130Z,7.45
2022-10-25T18:24:25.980Z,6.80
2022-10-25T18:27:30.371Z,10.50
2022-10-25T18:30:34.905Z,8.52
2022-10-25T18:33:40.380Z,7.95
2022-10-25T18:36:45.379Z,5.13
2022-10-25T18:39:47.521Z,5.22
2022-10-25T18:42:50.407Z,10.38
2022-10-25T18:45:57.138Z,8.80
2022-10-25T18:49:00.182Z,6.18
2022-10-25T18:52:04.240Z,7.97
2022-10-25T18:55:07.482Z,7.43
2022-10-25T18:58:10.245Z,6.15
2022-10-25T19:01:14.589Z,5.90
2022-10-25T19:04:17.735Z,7.45
2022-10-25T19:07:22.327Z,6.18
2022-10-25T19:10:27.247Z,6.43
2022-10-25T19:13:30.658Z,5.88
2022-10-25T19:16:35.304Z,7.18
2022-10-25T19:19:38.557Z,3.90
2022-10-25T19:22:42.796Z,6.07
2022-10-25T19:25:45.640Z,7.28
2022-10-25T19:28:48.624Z,8.13
2022-10-25T19:31:51.244Z,4.80
2022-10-25T19:34:53.632Z,5.45
2022-10-25T19:37:57.807Z,6.15
2022-10-25T19:41:01.103Z,6.45
2022-10-25T19:44:04.331Z,6.20
2022-10-25T19:47:07.719Z,4.20
2022-10-25T19:50:10.515Z,7.07
2022-10-25T19:53:14.975Z,4.90
2022-10-25T19:56:20.490Z,5.60
2022-10-25T19:59:23.057Z,8.30
2022-10-25T20:02:25.913Z,6.15
2022-10-25T20:05:29.055Z,6.47
2022-10-25T20:08:34.969Z,5.95
2022-10-25T20:11:37.953Z,10.15
2022-10-25T20:14:40.778Z,13.57
2022-10-25T20:17:44.058Z,7.18
2022-10-25T20:20:51.770Z,7.13
2022-10-25T20:23:59.578Z,11.50
2022-10-25T20:27:02.162Z,8.15
2022-10-25T20:30:05.613Z,10.13
2022-10-25T20:33:08.883Z,7.47
2022-10-25T20:36:13.372Z,4.03
2022-10-25T20:39:17.457Z,10.35
2022-10-25T20:42:20.240Z,4.25
2022-10-25T20:45:22.961Z,6.22
2022-10-25T20:48:25.463Z,7.88
2022-10-25T20:51:28.168Z,5.57
2022-10-25T20:54:31.673Z,10.13
2022-10-25T20:57:34.997Z,5.35
2022-10-25T21:00:37.176Z,5.78
2022-10-25T21:03:39.970Z,4.75
2022-10-25T21:06:41.900Z,6.85
2022-10-25T21:09:49.272Z,6.50
2022-10-25T21:12:51.478Z,6.53
2022-10-25T21:15:53.554Z,6.30
2022-10-25T21:18:55.422Z,6.18
2022-10-25T21:21:57.341Z,6.38
2022-10-25T21:25:00.629Z,5.57
2022-10-25T21:28:02.551Z,5.10
2022-10-25T21:31:06.591Z,4.88
2022-10-25T21:34:08.577Z,4.75
2022-10-25T21:37:10.528Z,7.30
2022-10-25T21:40:13.959Z,5.32
2022-10-25T21:43:15.867Z,6.00
2022-10-25T21:46:19.068Z,4.35
2022-10-25T21:49:20.880Z,2.03
2022-10-25T21:52:23.043Z,7.25
2022-10-25T21:55:26.317Z,2.95
2022-10-25T21:58:28.236Z,3.47
2022-10-25T22:01:30.831Z,6.13
2022-10-25T22:04:32.821Z,8.68
2022-10-25T22:07:34.801Z,5.35
2022-10-25T22:10:38.112Z,4.32
2022-10-25T22:13:40.361Z,10.32
2022-10-25T22:16:42.258Z,3.55
2022-10-25T22:19:44.170Z,3.05
2022-10-25T22:22:46.277Z,2.80
2022-10-25T22:25:49.893Z,3.00
2022-10-25T22:28:52.778Z,4.28
2022-10-25T22:31:54.937Z,6.18
2022-10-25T22:34:56.946Z,4.22
2022-10-25T22:37:58.916Z,8.55
2022-10-25T22:41:03.728Z,7.05
2022-10-25T22:44:06.302Z,6.35
2022-10-25T22:47:08.233Z,5.93
2022-10-25T22:50:10.785Z,7.70
2022-10-25T22:53:12.724Z,4.22
2022-10-25T22:56:17.729Z,3.70
2022-10-25T22:59:19.722Z,4.95
2022-10-25T23:02:21.875Z,7.72
2022-10-25T23:05:23.817Z,4.55
2022-10-25T23:08:25.910Z,9.15
2022-10-25T23:11:30.741Z,6.13
2022-10-25T23:14:32.655Z,6.60
2022-10-25T23:17:34.621Z,9.90
2022-10-25T23:20:36.525Z,8.05
2022-10-25T23:23:38.857Z,4.32
2022-10-25T23:26:42.374Z,3.88
2022-10-25T23:29:44.257Z,2.95
2022-10-25T23:32:46.168Z,5.22
2022-10-25T23:35:48.108Z,10.45
2022-10-25T23:38:51.308Z,3.22
2022-10-25T23:41:54.611Z,3.50
2022-10-25T23:44:56.525Z,4.47
2022-10-25T23:47:58.717Z,9.02
2022-10-25T23:51:02.307Z,8.02
2022-10-25T23:54:04.428Z,4.03
2022-10-25T23:57:07.705Z,5.28
